createdAt,value
2022-12-29T00:00:05.259Z,67.96
2022-12-29T00:01:05.300Z,68.88
2022-12-29T00:02:05.239Z,69.18
2022-12-29T00:03:05.295Z,69.15
2022-12-29T00:04:07.726Z,69.59
2022-12-29T00:05:06.197Z,69.56
2022-12-29T00:06:05.179Z,70.07
2022-12-29T00:07:05.176Z,70.37
2022-12-29T00:08:05.165Z,70.17
2022-12-29T00:09:05.155Z,70.27
2022-12-29T00:10:05.137Z,69.96
2022-12-29T00:11:05.103Z,69.86
2022-12-29T00:12:05.112Z,69.66
2022-12-29T00:13:05.092Z,69.56
2022-12-29T00:14:05.060Z,69.35
2022-12-29T00:15:05.055Z,69.25
2022-12-29T00:16:05.069Z,69.46
2022-12-29T00:17:05.059Z,69.46
2022-12-29T00:18:05.009Z,69.25
2022-12-29T00:19:05.003Z,69.35
2022-12-29T00:20:04.987Z,69.46
2022-12-29T00:21:04.966Z,69.66
2022-12-29T00:22:04.974Z,69.76
2022-12-29T00:23:04.982Z,69.96
2022-12-29T00:24:04.927Z,69.96
2022-12-29T00:25:04.918Z,70.27
2022-12-29T00:26:04.896Z,69.96
2022-12-29T00:27:04.914Z,69.56
2022-12-29T00:28:07.212Z,68.84
2022-12-29T00:29:04.868Z,68.33
2022-12-29T00:30:05.005Z,67.93
2022-12-29T00:31:04.874Z,67.32
2022-12-29T00:32:04.847Z,66.83
2022-12-29T00:33:04.818Z,66.33
2022-12-29T00:34:04.792Z,66.33
2022-12-29T00:35:04.823Z,66.12
2022-12-29T00:36:04.755Z,65.74
2022-12-29T00:37:04.825Z,65.34
2022-12-29T00:38:04.738Z,65.44
2022-12-29T00:39:04.744Z,65.03
2022-12-29T00:40:04.726Z,64.42
2022-12-29T00:41:04.701Z,64.01
2022-12-29T00:42:04.719Z,63.49
2022-12-29T00:43:04.683Z,63.43
2022-12-29T00:44:04.669Z,63.12
2022-12-29T00:45:04.641Z,63.12
2022-12-29T00:46:04.709Z,62.81
2022-12-29T00:47:04.702Z,62.51
2022-12-29T00:48:04.616Z,63.63
2022-12-29T00:49:04.599Z,64.24
2022-12-29T00:50:04.576Z,64.83
2022-12-29T00:51:04.599Z,65.54
2022-12-29T00:52:04.573Z,66.56
2022-12-29T00:53:04.537Z,67.76
2022-12-29T00:54:04.519Z,68.16
2022-12-29T00:55:04.509Z,68.98
2022-12-29T00:56:04.506Z,69.76
2022-12-29T00:57:04.506Z,70.68
2022-12-29T00:58:04.501Z,71.29
2022-12-29T00:59:04.448Z,71.70
2022-12-29T01:00:04.475Z,72.62
2022-12-29T01:01:04.489Z,73.50
2022-12-29T01:02:04.510Z,73.81
2022-12-29T01:03:04.465Z,74.32
2022-12-29T01:04:04.878Z,73.91
2022-12-29T01:05:04.372Z,74.73
2022-12-29T01:06:04.351Z,74.52
2022-12-29T01:07:04.364Z,74.83
2022-12-29T01:08:04.338Z,75.13
2022-12-29T01:09:04.355Z,75.03
2022-12-29T01:10:04.312Z,74.42
2022-12-29T01:11:04.294Z,75.23
2022-12-29T01:12:04.293Z,75.23
2022-12-29T01:13:04.265Z,75.44
2022-12-29T01:14:04.251Z,76.56
2022-12-29T01:15:04.231Z,76.87
2022-12-29T01:16:04.233Z,77.17
2022-12-29T01:17:04.234Z,76.32
2022-12-29T01:18:04.216Z,77.03
2022-12-29T01:19:04.192Z,76.83
2022-12-29T01:20:04.181Z,78.16
2022-12-29T01:21:04.154Z,78.46
2022-12-29T01:22:04.159Z,78.16
2022-12-29T01:23:04.125Z,78.46
2022-12-29T01:24:04.126Z,78.56
2022-12-29T01:25:04.121Z,79.27
2022-12-29T01:26:04.089Z,79.68
2022-12-29T01:27:04.093Z,79.17
2022-12-29T01:28:04.074Z,79.07
2022-12-29T01:29:04.044Z,78.87
2022-12-29T01:30:04.034Z,78.66
2022-12-29T01:31:04.219Z,78.97
2022-12-29T01:32:04.107Z,78.66
2022-12-29T01:33:04.009Z,79.07
2022-12-29T01:34:03.992Z,79.17
2022-12-29T01:35:03.975Z,79.27
2022-12-29T01:36:03.964Z,79.17
2022-12-29T01:37:03.962Z,79.07
2022-12-29T01:38:03.922Z,78.87
2022-12-29T01:39:03.917Z,79.89
2022-12-29T01:40:03.902Z,79.17
2022-12-29T01:41:03.906Z,79.79
2022-12-29T01:42:03.892Z,79.89
2022-12-29T01:43:03.879Z,79.89
2022-12-29T01:44:03.848Z,79.68
2022-12-29T01:45:03.846Z,79.68
2022-12-29T01:46:03.893Z,79.32
2022-12-29T01:47:03.830Z,79.41
2022-12-29T01:48:03.785Z,79.21
2022-12-29T01:49:03.778Z,79.41
2022-12-29T01:50:03.786Z,79.72
2022-12-29T01:51:03.769Z,79.82
2022-12-29T01:52:03.759Z,80.23
2022-12-29T01:53:03.718Z,79.93
2022-12-29T01:54:03.708Z,80.13
2022-12-29T01:55:03.696Z,79.93
2022-12-29T01:56:03.697Z,80.33
2022-12-29T01:57:03.693Z,80.74
2022-12-29T01:58:03.648Z,80.84
2022-12-29T01:59:03.646Z,80.74
2022-12-29T02:00:03.621Z,80.54
2022-12-29T02:01:03.686Z,80.64
2022-12-29T02:02:03.623Z,80.64
2022-12-29T02:03:03.716Z,81.04
2022-12-29T02:04:03.580Z,80.64
2022-12-29T02:05:04.826Z,80.74
2022-12-29T02:06:03.557Z,80.64
2022-12-29T02:07:03.529Z,81.35
2022-12-29T02:08:03.509Z,81.35
2022-12-29T02:09:03.508Z,81.56
2022-12-29T02:10:03.496Z,81.56
2022-12-29T02:11:03.517Z,81.76
2022-12-29T02:12:03.479Z,82.27
2022-12-29T02:13:03.466Z,81.96
2022-12-29T02:14:03.996Z,82.68
2022-12-29T02:15:03.425Z,82.37
2022-12-29T02:16:03.443Z,82.47
2022-12-29T02:17:03.392Z,83.39
2022-12-29T02:18:03.440Z,84.00
2022-12-29T02:19:03.372Z,83.49
2022-12-29T02:20:03.349Z,83.59
2022-12-29T02:21:03.391Z,84.00
2022-12-29T02:22:03.331Z,84.00
2022-12-29T02:23:03.310Z,84.41
2022-12-29T02:24:03.316Z,84.41
2022-12-29T02:25:03.293Z,84.51
2022-12-29T02:26:03.326Z,84.61
2022-12-29T02:27:03.263Z,84.20
2022-12-29T02:28:03.242Z,84.61
2022-12-29T02:29:03.233Z,84.72
2022-12-29T02:30:03.208Z,85.74
2022-12-29T02:31:03.227Z,85.74
2022-12-29T02:32:03.319Z,85.39
2022-12-29T02:33:03.191Z,85.39
2022-12-29T02:34:03.178Z,85.74
2022-12-29T02:35:03.144Z,85.84
2022-12-29T02:36:03.168Z,85.74
2022-12-29T02:37:03.124Z,86.24
2022-12-29T02:38:03.104Z,86.24
2022-12-29T02:39:03.128Z,86.55
2022-12-29T02:40:03.082Z,86.61
2022-12-29T02:41:03.104Z,86.04
2022-12-29T02:42:03.058Z,86.21
2022-12-29T02:43:03.030Z,86.15
2022-12-29T02:44:03.033Z,86.15
2022-12-29T02:45:03.045Z,86.35
2022-12-29T02:46:03.060Z,86.45
2022-12-29T02:47:02.993Z,86.82
2022-12-29T02:48:02.977Z,86.51
2022-12-29T02:49:02.959Z,86.71
2022-12-29T02:50:02.940Z,86.61
2022-12-29T02:51:02.988Z,86.30
2022-12-29T02:52:02.924Z,86.24
2022-12-29T02:53:02.914Z,86.00
2022-12-29T02:54:02.908Z,85.94
2022-12-29T02:55:02.874Z,85.63
2022-12-29T02:56:02.892Z,85.63
2022-12-29T02:57:02.848Z,85.33
2022-12-29T02:58:02.834Z,86.15
2022-12-29T02:59:02.825Z,85.84
2022-12-29T03:00:02.815Z,85.94
2022-12-29T03:01:02.870Z,86.10
2022-12-29T03:02:03.054Z,85.60
2022-12-29T03:03:02.933Z,85.53
2022-12-29T03:04:02.761Z,84.98
2022-12-29T03:05:02.725Z,85.69
2022-12-29T03:06:02.746Z,85.49
2022-12-29T03:07:02.707Z,84.98
2022-12-29T03:08:02.698Z,85.08
2022-12-29T03:09:02.682Z,85.08
2022-12-29T03:10:02.674Z,84.98
2022-12-29T03:11:02.687Z,85.22
2022-12-29T03:12:02.643Z,85.08
2022-12-29T03:13:02.840Z,84.78
2022-12-29T03:14:02.615Z,84.98
2022-12-29T03:15:02.617Z,85.39
2022-12-29T03:16:02.606Z,85.49
2022-12-29T03:17:02.608Z,85.39
2022-12-29T03:18:02.564Z,85.69
2022-12-29T03:19:02.568Z,85.49
2022-12-29T03:20:02.567Z,86.00
2022-12-29T03:21:02.546Z,85.80
2022-12-29T03:22:02.509Z,85.60
2022-12-29T03:23:02.515Z,85.90
2022-12-29T03:24:02.488Z,84.58
2022-12-29T03:25:02.470Z,83.76
2022-12-29T03:26:02.500Z,83.15
2022-12-29T03:27:02.440Z,82.33
2022-12-29T03:28:02.466Z,82.68
2022-12-29T03:29:02.441Z,81.35
2022-12-29T03:30:02.412Z,82.07
2022-12-29T03:31:02.458Z,82.07
2022-12-29T03:32:02.405Z,81.96
2022-12-29T03:33:02.356Z,82.57
2022-12-29T03:34:02.372Z,82.98
2022-12-29T03:35:02.346Z,83.29
2022-12-29T03:36:02.330Z,82.78
2022-12-29T03:37:02.329Z,83.76
2022-12-29T03:38:02.327Z,83.45
2022-12-29T03:39:02.287Z,83.86
2022-12-29T03:40:02.259Z,83.65
2022-12-29T03:41:02.256Z,83.45
2022-12-29T03:42:02.262Z,83.35
2022-12-29T03:43:02.235Z,83.96
2022-12-29T03:44:02.226Z,84.78
2022-12-29T03:45:02.228Z,83.86
2022-12-29T03:46:02.228Z,84.98
2022-12-29T03:47:02.193Z,84.88
2022-12-29T03:48:02.167Z,84.98
2022-12-29T03:49:02.141Z,85.39
2022-12-29T03:50:02.142Z,84.98
2022-12-29T03:51:02.134Z,84.98
2022-12-29T03:52:02.119Z,85.19
2022-12-29T03:53:02.105Z,85.14
2022-12-29T03:54:02.086Z,85.14
2022-12-29T03:55:02.067Z,85.35
2022-12-29T03:56:02.073Z,85.08
2022-12-29T03:57:02.045Z,85.05
2022-12-29T03:58:02.027Z,85.14
2022-12-29T03:59:02.024Z,85.14
2022-12-29T04:00:01.991Z,84.94
2022-12-29T04:01:02.051Z,84.43
2022-12-29T04:02:02.059Z,85.25
2022-12-29T04:03:02.061Z,85.35
2022-12-29T04:04:01.941Z,85.45
2022-12-29T04:05:01.917Z,85.35
2022-12-29T04:06:01.921Z,85.35
2022-12-29T04:07:01.916Z,85.96
2022-12-29T04:08:01.908Z,85.55
2022-12-29T04:09:01.871Z,85.75
2022-12-29T04:10:01.883Z,85.55
2022-12-29T04:11:01.837Z,85.55
2022-12-29T04:12:01.846Z,85.25
2022-12-29T04:13:01.869Z,85.05
2022-12-29T04:14:01.803Z,85.25
2022-12-29T04:15:01.812Z,85.66
2022-12-29T04:16:01.926Z,85.96
2022-12-29T04:17:01.796Z,85.66
2022-12-29T04:18:01.758Z,85.25
2022-12-29T04:19:01.740Z,86.57
2022-12-29T04:20:01.731Z,86.06
2022-12-29T04:21:01.724Z,86.37
2022-12-29T04:22:01.715Z,86.68
2022-12-29T04:23:01.689Z,86.68
2022-12-29T04:24:01.681Z,86.16
2022-12-29T04:25:01.658Z,86.27
2022-12-29T04:26:01.656Z,86.37
2022-12-29T04:27:01.632Z,86.77
2022-12-29T04:28:01.643Z,87.59
2022-12-29T04:29:01.594Z,86.98
2022-12-29T04:30:01.594Z,87.38
2022-12-29T04:31:01.649Z,87.38
2022-12-29T04:32:01.566Z,87.29
2022-12-29T04:33:01.562Z,87.18
2022-12-29T04:34:01.560Z,87.38
2022-12-29T04:35:01.517Z,87.08
2022-12-29T04:36:01.527Z,86.47
2022-12-29T04:37:01.481Z,87.08
2022-12-29T04:38:01.489Z,87.08
2022-12-29T04:39:01.510Z,86.98
2022-12-29T04:40:01.454Z,87.29
2022-12-29T04:41:01.515Z,87.59
2022-12-29T04:42:01.425Z,87.29
2022-12-29T04:43:01.416Z,87.90
2022-12-29T04:44:01.393Z,87.90
2022-12-29T04:45:01.396Z,87.69
2022-12-29T04:46:01.510Z,87.79
2022-12-29T04:47:01.352Z,88.00
2022-12-29T04:48:01.358Z,88.51
2022-12-29T04:49:01.328Z,88.31
2022-12-29T04:50:01.326Z,88.20
2022-12-29T04:51:01.344Z,88.61
2022-12-29T04:52:01.306Z,88.20
2022-12-29T04:53:01.266Z,88.61
2022-12-29T04:54:01.264Z,88.92
2022-12-29T04:55:01.251Z,89.01
2022-12-29T04:56:01.267Z,88.92
2022-12-29T04:57:01.247Z,88.61
2022-12-29T04:58:01.223Z,89.53
2022-12-29T04:59:01.228Z,89.53
2022-12-29T05:00:01.208Z,88.71
2022-12-29T05:01:01.183Z,89.12
2022-12-29T05:02:01.281Z,88.71
2022-12-29T05:03:01.254Z,88.51
2022-12-29T05:04:01.181Z,88.81
2022-12-29T05:05:01.106Z,89.01
2022-12-29T05:06:01.123Z,88.81
2022-12-29T05:07:01.094Z,88.71
2022-12-29T05:08:01.092Z,88.40
2022-12-29T05:09:01.052Z,88.81
2022-12-29T05:10:01.049Z,88.61
2022-12-29T05:11:01.043Z,88.10
2022-12-29T05:12:01.034Z,88.81
2022-12-29T05:13:01.035Z,88.31
2022-12-29T05:14:00.988Z,88.71
2022-12-29T05:15:00.975Z,88.40
2022-12-29T05:16:01.040Z,88.81
2022-12-29T05:17:00.996Z,88.61
2022-12-29T05:18:00.951Z,88.81
2022-12-29T05:19:00.933Z,88.71
2022-12-29T05:20:00.930Z,88.81
2022-12-29T05:21:00.925Z,88.71
2022-12-29T05:22:00.909Z,88.71
2022-12-29T05:23:00.862Z,88.81
2022-12-29T05:24:00.876Z,88.81
2022-12-29T05:25:00.885Z,89.22
2022-12-29T05:26:00.835Z,89.01
2022-12-29T05:27:00.837Z,89.42
2022-12-29T05:28:00.795Z,89.22
2022-12-29T05:29:00.804Z,89.12
2022-12-29T05:30:00.788Z,89.12
2022-12-29T05:31:00.794Z,89.22
2022-12-29T05:32:00.765Z,88.71
2022-12-29T05:33:00.733Z,88.71
2022-12-29T05:34:00.725Z,88.31
2022-12-29T05:35:00.729Z,88.31
2022-12-29T05:36:00.691Z,88.04
2022-12-29T05:37:00.699Z,87.43
2022-12-29T05:38:00.663Z,88.55
2022-12-29T05:39:00.648Z,88.24
2022-12-29T05:40:00.630Z,87.84
2022-12-29T05:41:00.635Z,88.45
2022-12-29T05:42:00.657Z,88.34
2022-12-29T05:43:00.604Z,88.04
2022-12-29T05:44:00.609Z,88.45
2022-12-29T05:45:00.576Z,88.14
2022-12-29T05:46:00.555Z,88.45
2022-12-29T05:47:00.690Z,88.14
2022-12-29T05:48:09.347Z,88.04
2022-12-29T05:49:02.168Z,87.73
2022-12-29T05:50:00.501Z,87.84
2022-12-29T05:51:00.486Z,88.04
2022-12-29T05:52:00.519Z,88.45
2022-12-29T05:53:00.445Z,88.45
2022-12-29T05:54:00.451Z,88.45
2022-12-29T05:55:00.428Z,88.96
2022-12-29T05:56:00.430Z,88.75
2022-12-29T05:57:00.419Z,89.16
2022-12-29T05:58:00.409Z,89.57
2022-12-29T05:59:00.394Z,89.16
2022-12-29T06:00:00.418Z,89.77
2022-12-29T06:01:00.386Z,90.03
2022-12-29T06:02:00.526Z,89.22
2022-12-29T06:03:00.471Z,89.73
2022-12-29T06:04:00.549Z,89.97
2022-12-29T06:05:00.292Z,90.18
2022-12-29T06:06:00.321Z,89.77
2022-12-29T06:07:00.280Z,90.18
2022-12-29T06:08:00.282Z,90.08
2022-12-29T06:09:00.240Z,90.28
2022-12-29T06:10:00.236Z,90.28
2022-12-29T06:11:00.243Z,90.18
2022-12-29T06:12:00.225Z,89.97
2022-12-29T06:13:00.206Z,89.97
2022-12-29T06:14:00.214Z,90.08
2022-12-29T06:15:00.194Z,90.18
2022-12-29T06:16:00.242Z,90.18
2022-12-29T06:17:00.174Z,89.97
2022-12-29T06:18:00.151Z,89.97
2022-12-29T06:19:00.129Z,89.71
2022-12-29T06:20:00.102Z,89.71
2022-12-29T06:21:00.110Z,89.92
2022-12-29T06:22:00.132Z,89.81
2022-12-29T06:23:00.053Z,90.01
2022-12-29T06:24:00.062Z,90.22
2022-12-29T06:25:04.551Z,90.01
2022-12-29T06:26:01.046Z,90.01
2022-12-29T06:26:59.994Z,89.81
2022-12-29T06:27:59.983Z,89.81
2022-12-29T06:28:59.976Z,89.51
2022-12-29T06:30:00.009Z,89.51
2022-12-29T06:30:59.971Z,89.51
2022-12-29T06:32:00.080Z,89.20
2022-12-29T06:32:59.931Z,89.00
2022-12-29T06:34:04.944Z,88.73
2022-12-29T06:35:00.887Z,88.84
2022-12-29T06:35:59.897Z,88.84
2022-12-29T06:36:59.880Z,88.43
2022-12-29T06:37:59.882Z,88.73
2022-12-29T06:38:59.837Z,88.73
2022-12-29T06:39:59.992Z,88.32
2022-12-29T06:40:59.830Z,88.93
2022-12-29T06:41:59.789Z,89.14
2022-12-29T06:42:59.779Z,89.25
2022-12-29T06:43:59.826Z,89.25
2022-12-29T06:44:59.766Z,89.04
2022-12-29T06:45:59.821Z,89.14
2022-12-29T06:46:59.733Z,89.14
2022-12-29T06:47:59.716Z,88.93
2022-12-29T06:48:59.712Z,89.45
2022-12-29T06:49:59.680Z,89.25
2022-12-29T06:50:59.693Z,89.25
2022-12-29T06:51:59.654Z,89.14
2022-12-29T06:52:59.656Z,89.25
2022-12-29T06:53:59.631Z,89.96
2022-12-29T06:54:59.621Z,89.25
2022-12-29T06:55:59.618Z,89.86
2022-12-29T06:56:59.603Z,89.96
2022-12-29T06:57:59.600Z,89.75
2022-12-29T06:58:59.561Z,90.26
2022-12-29T06:59:59.573Z,90.67
2022-12-29T07:00:59.622Z,90.36
2022-12-29T07:01:59.633Z,90.06
2022-12-29T07:02:59.705Z,90.06
2022-12-29T07:03:59.486Z,90.36
2022-12-29T07:04:59.480Z,90.06
2022-12-29T07:05:59.528Z,90.47
2022-12-29T07:06:59.452Z,90.77
2022-12-29T07:07:59.465Z,90.47
2022-12-29T07:08:59.431Z,90.36
2022-12-29T07:09:59.428Z,90.57
2022-12-29T07:10:59.440Z,90.47
2022-12-29T07:11:59.394Z,91.08
2022-12-29T07:12:59.381Z,90.98
2022-12-29T07:14:02.538Z,90.67
2022-12-29T07:14:59.341Z,90.98
2022-12-29T07:15:59.340Z,90.77
2022-12-29T07:16:59.388Z,91.18
2022-12-29T07:17:59.337Z,91.28
2022-12-29T07:18:59.305Z,91.59
2022-12-29T07:19:59.271Z,92.00
2022-12-29T07:20:59.273Z,92.00
2022-12-29T07:21:59.277Z,91.79
2022-12-29T07:22:59.280Z,91.69
2022-12-29T07:23:59.222Z,91.69
2022-12-29T07:24:59.215Z,91.39
2022-12-29T07:25:59.229Z,91.59
2022-12-29T07:26:59.199Z,91.59
2022-12-29T07:27:59.173Z,91.49
2022-12-29T07:28:59.164Z,91.49
2022-12-29T07:29:59.168Z,91.79
2022-12-29T07:30:59.151Z,91.59
2022-12-29T07:31:59.228Z,91.59
2022-12-29T07:32:59.135Z,91.49
2022-12-29T07:33:59.094Z,92.20
2022-12-29T07:34:59.078Z,92.41
2022-12-29T07:35:59.094Z,92.30
2022-12-29T07:36:59.046Z,92.30
2022-12-29T07:37:59.037Z,92.50
2022-12-29T07:38:59.035Z,92.61
2022-12-29T07:39:59.038Z,92.71
2022-12-29T07:40:59.066Z,92.61
2022-12-29T07:42:04.498Z,92.50
2022-12-29T07:42:59.968Z,93.22
2022-12-29T07:43:58.956Z,92.50
2022-12-29T07:44:58.939Z,93.84
2022-12-29T07:45:58.981Z,93.63
2022-12-29T07:46:59.369Z,93.43
2022-12-29T07:47:58.902Z,93.63
2022-12-29T07:48:58.889Z,92.71
2022-12-29T07:49:58.874Z,92.91
2022-12-29T07:50:58.871Z,93.32
2022-12-29T07:51:58.845Z,93.52
2022-12-29T07:52:58.827Z,93.22
2022-12-29T07:53:58.814Z,93.32
2022-12-29T07:54:58.797Z,93.63
2022-12-29T07:55:58.796Z,93.52
2022-12-29T07:56:58.788Z,93.22
2022-12-29T07:57:58.765Z,93.43
2022-12-29T07:58:58.757Z,93.52
2022-12-29T07:59:58.748Z,93.93
2022-12-29T08:00:58.808Z,93.73
2022-12-29T08:01:58.795Z,93.52
2022-12-29T08:02:58.697Z,93.22
2022-12-29T08:03:58.715Z,93.43
2022-12-29T08:04:58.664Z,93.52
2022-12-29T08:05:58.668Z,93.02
2022-12-29T08:06:58.647Z,93.43
2022-12-29T08:07:58.633Z,93.22
2022-12-29T08:09:01.607Z,93.43
2022-12-29T08:09:59.594Z,93.43
2022-12-29T08:10:58.608Z,93.22
2022-12-29T08:11:58.580Z,93.32
2022-12-29T08:12:58.548Z,93.22
2022-12-29T08:13:58.537Z,93.06
2022-12-29T08:14:58.533Z,92.96
2022-12-29T08:15:58.593Z,92.86
2022-12-29T08:16:58.516Z,92.65
2022-12-29T08:17:58.493Z,92.86
2022-12-29T08:18:58.480Z,93.06
2022-12-29T08:19:58.467Z,93.06
2022-12-29T08:20:58.481Z,93.47
2022-12-29T08:21:58.440Z,93.26
2022-12-29T08:22:58.429Z,93.16
2022-12-29T08:23:58.401Z,93.26
2022-12-29T08:24:58.402Z,93.06
2022-12-29T08:25:58.406Z,93.26
2022-12-29T08:26:58.373Z,93.16
2022-12-29T08:27:58.360Z,93.16
2022-12-29T08:28:58.341Z,93.26
2022-12-29T08:29:58.324Z,93.16
2022-12-29T08:30:58.342Z,92.35
2022-12-29T08:31:58.290Z,91.94
2022-12-29T08:32:58.288Z,91.22
2022-12-29T08:33:58.264Z,88.78
2022-12-29T08:34:58.270Z,86.47
2022-12-29T08:35:58.271Z,85.08
2022-12-29T08:36:58.229Z,83.89
2022-12-29T08:37:58.213Z,80.01
2022-12-29T08:38:58.202Z,79.94
2022-12-29T08:39:58.183Z,78.72
2022-12-29T08:40:58.200Z,78.72
2022-12-29T08:41:58.162Z,79.23
2022-12-29T08:42:58.143Z,79.74
2022-12-29T08:43:58.137Z,79.23
2022-12-29T08:44:58.125Z,80.25
2022-12-29T08:45:58.206Z,79.94
2022-12-29T08:46:58.103Z,79.74
2022-12-29T08:47:58.079Z,79.43
2022-12-29T08:48:58.072Z,81.48
2022-12-29T08:49:58.044Z,83.73
2022-12-29T08:50:58.051Z,84.00
2022-12-29T08:51:58.023Z,84.30
2022-12-29T08:52:58.002Z,84.50
2022-12-29T08:53:57.999Z,85.53
2022-12-29T08:54:57.988Z,84.91
2022-12-29T08:56:02.381Z,85.63
2022-12-29T08:56:58.995Z,85.63
2022-12-29T08:57:57.944Z,85.53
2022-12-29T08:58:57.934Z,84.91
2022-12-29T08:59:57.914Z,86.82
2022-12-29T09:00:57.919Z,86.61
2022-12-29T09:01:57.938Z,86.82
2022-12-29T09:02:58.087Z,87.88
2022-12-29T09:04:18.683Z,87.94
2022-12-29T09:04:58.914Z,87.94
2022-12-29T09:05:57.844Z,88.55
2022-12-29T09:06:57.815Z,88.24
2022-12-29T09:07:57.805Z,88.96
2022-12-29T09:08:57.796Z,88.85
2022-12-29T09:09:57.765Z,88.55
2022-12-29T09:10:57.777Z,87.63
2022-12-29T09:11:57.754Z,87.63
2022-12-29T09:12:57.739Z,88.65
2022-12-29T09:13:57.717Z,88.24
2022-12-29T09:14:57.708Z,88.24
2022-12-29T09:15:57.720Z,88.24
2022-12-29T09:16:57.688Z,88.45
2022-12-29T09:17:57.669Z,88.14
2022-12-29T09:18:57.663Z,88.76
2022-12-29T09:19:57.634Z,88.85
2022-12-29T09:20:57.650Z,89.37
2022-12-29T09:21:57.630Z,88.71
2022-12-29T09:22:57.625Z,89.02
2022-12-29T09:23:57.607Z,89.43
2022-12-29T09:24:57.606Z,89.53
2022-12-29T09:25:57.567Z,89.12
2022-12-29T09:26:57.546Z,88.61
2022-12-29T09:27:57.528Z,88.41
2022-12-29T09:28:57.517Z,88.92
2022-12-29T09:29:57.498Z,89.43
2022-12-29T09:30:57.610Z,89.84
2022-12-29T09:31:57.484Z,90.66
2022-12-29T09:32:57.478Z,90.66
2022-12-29T09:33:57.460Z,90.81
2022-12-29T09:34:57.438Z,92.04
2022-12-29T09:35:57.453Z,91.63
2022-12-29T09:36:57.412Z,91.83
2022-12-29T09:37:57.413Z,92.65
2022-12-29T09:38:57.390Z,92.55
2022-12-29T09:39:57.365Z,92.35
2022-12-29T09:40:57.368Z,92.76
2022-12-29T09:41:57.359Z,92.65
2022-12-29T09:42:57.329Z,92.35
2022-12-29T09:43:57.314Z,92.76
2022-12-29T09:44:57.391Z,92.00
2022-12-29T09:45:57.302Z,93.26
2022-12-29T09:46:57.413Z,92.86
2022-12-29T09:47:57.301Z,92.86
2022-12-29T09:48:57.248Z,93.16
2022-12-29T09:49:57.223Z,93.26
2022-12-29T09:50:57.241Z,93.98
2022-12-29T09:51:57.199Z,93.88
2022-12-29T09:52:57.186Z,94.08
2022-12-29T09:53:57.172Z,93.98
2022-12-29T09:55:02.354Z,93.47
2022-12-29T09:55:58.178Z,93.88
2022-12-29T09:56:57.134Z,94.59
2022-12-29T09:57:57.125Z,94.59
2022-12-29T09:58:57.103Z,94.65
2022-12-29T09:59:57.087Z,94.75
2022-12-29T10:00:57.128Z,94.85
2022-12-29T10:01:57.134Z,94.65
2022-12-29T10:02:57.148Z,95.06
2022-12-29T10:03:57.034Z,94.75
2022-12-29T10:04:57.027Z,94.75
2022-12-29T10:05:57.024Z,94.75
2022-12-29T10:07:28.177Z,94.95
2022-12-29T10:07:57.992Z,94.75
2022-12-29T10:08:56.986Z,94.55
2022-12-29T10:09:56.954Z,94.24
2022-12-29T10:10:56.964Z,94.45
2022-12-29T10:11:56.932Z,94.85
2022-12-29T10:12:56.943Z,94.34
2022-12-29T10:13:56.894Z,94.75
2022-12-29T10:14:56.890Z,93.93
2022-12-29T10:15:56.933Z,93.84
2022-12-29T10:16:56.880Z,93.73
2022-12-29T10:17:56.853Z,94.55
2022-12-29T10:18:56.849Z,93.02
2022-12-29T10:19:56.830Z,93.63
2022-12-29T10:20:56.833Z,93.48
2022-12-29T10:21:56.808Z,93.43
2022-12-29T10:22:56.789Z,93.48
2022-12-29T10:23:56.770Z,93.32
2022-12-29T10:24:56.754Z,93.79
2022-12-29T10:25:56.747Z,93.59
2022-12-29T10:26:56.736Z,93.89
2022-12-29T10:27:56.731Z,93.79
2022-12-29T10:28:56.699Z,93.79
2022-12-29T10:29:56.687Z,94.09
2022-12-29T10:30:56.698Z,93.79
2022-12-29T10:31:56.693Z,94.09
2022-12-29T10:32:56.646Z,93.89
2022-12-29T10:33:56.629Z,93.28
2022-12-29T10:34:56.638Z,94.09
2022-12-29T10:35:56.616Z,94.30
2022-12-29T10:36:56.609Z,93.69
2022-12-29T10:37:56.602Z,93.79
2022-12-29T10:38:56.580Z,93.59
2022-12-29T10:39:56.546Z,93.89
2022-12-29T10:40:56.558Z,93.89
2022-12-29T10:41:56.531Z,93.48
2022-12-29T10:42:56.512Z,93.59
2022-12-29T10:43:56.490Z,92.87
2022-12-29T10:44:56.495Z,93.99
2022-12-29T10:45:56.526Z,93.99
2022-12-29T10:46:56.474Z,93.79
2022-12-29T10:47:56.444Z,94.05
2022-12-29T10:48:56.424Z,93.79
2022-12-29T10:49:56.412Z,93.54
2022-12-29T10:51:01.590Z,93.59
2022-12-29T10:51:57.386Z,93.18
2022-12-29T10:52:56.371Z,93.48
2022-12-29T10:53:56.361Z,93.74
2022-12-29T10:54:56.342Z,94.15
2022-12-29T10:55:56.360Z,93.85
2022-12-29T10:56:56.321Z,94.15
2022-12-29T10:57:56.313Z,93.85
2022-12-29T10:58:56.282Z,93.74
2022-12-29T10:59:56.282Z,94.26
2022-12-29T11:00:56.340Z,93.28
2022-12-29T11:01:56.609Z,93.28
2022-12-29T11:02:56.519Z,92.57
2022-12-29T11:03:56.223Z,92.67
2022-12-29T11:04:56.216Z,92.77
2022-12-29T11:05:56.224Z,92.97
2022-12-29T11:06:56.183Z,93.59
2022-12-29T11:07:56.175Z,92.87
2022-12-29T11:08:56.153Z,92.87
2022-12-29T11:09:56.149Z,92.87
2022-12-29T11:10:56.144Z,93.28
2022-12-29T11:11:56.114Z,92.46
2022-12-29T11:12:56.123Z,92.97
2022-12-29T11:13:56.100Z,93.99
2022-12-29T11:14:56.066Z,93.59
2022-12-29T11:15:56.074Z,93.48
2022-12-29T11:16:56.086Z,92.87
2022-12-29T11:17:56.047Z,92.97
2022-12-29T11:18:56.015Z,93.18
2022-12-29T11:19:56.016Z,93.38
2022-12-29T11:20:56.013Z,92.91
2022-12-29T11:21:55.979Z,92.91
2022-12-29T11:22:55.965Z,93.12
2022-12-29T11:23:55.956Z,93.22
2022-12-29T11:24:55.940Z,93.63
2022-12-29T11:25:55.950Z,93.52
2022-12-29T11:26:55.909Z,94.30
2022-12-29T11:27:55.899Z,92.61
2022-12-29T11:28:55.890Z,92.20
2022-12-29T11:29:55.877Z,92.30
2022-12-29T11:30:55.878Z,91.69
2022-12-29T11:31:55.956Z,92.41
2022-12-29T11:32:55.826Z,92.91
2022-12-29T11:33:55.819Z,92.81
2022-12-29T11:34:55.810Z,93.12
2022-12-29T11:35:55.798Z,92.81
2022-12-29T11:36:55.773Z,93.32
2022-12-29T11:37:55.777Z,93.43
2022-12-29T11:38:55.760Z,93.63
2022-12-29T11:39:55.737Z,93.52
2022-12-29T11:40:55.729Z,93.02
2022-12-29T11:41:55.701Z,93.02
2022-12-29T11:42:55.690Z,92.81
2022-12-29T11:43:55.677Z,92.61
2022-12-29T11:44:55.663Z,91.89
2022-12-29T11:45:55.704Z,92.50
2022-12-29T11:46:55.641Z,92.71
2022-12-29T11:47:55.631Z,92.61
2022-12-29T11:50:06.114Z,93.02
2022-12-29T11:51:05.428Z,92.81
2022-12-29T11:52:05.393Z,93.32
2022-12-29T11:53:05.387Z,93.02
2022-12-29T11:54:05.363Z,93.22
2022-12-29T11:55:05.369Z,92.61
2022-12-29T11:56:05.354Z,92.61
2022-12-29T11:57:05.343Z,92.91
2022-12-29T11:58:05.333Z,92.41
2022-12-29T11:59:05.302Z,93.02
2022-12-29T12:00:05.300Z,92.50
2022-12-29T12:01:05.299Z,92.30
2022-12-29T12:02:05.414Z,92.61
2022-12-29T12:03:05.334Z,92.00
2022-12-29T12:04:05.373Z,91.89
2022-12-29T12:05:05.224Z,92.91
2022-12-29T12:06:05.222Z,93.22
2022-12-29T12:07:05.189Z,93.22
2022-12-29T12:08:05.183Z,93.43
2022-12-29T12:09:05.169Z,93.32
2022-12-29T12:10:07.806Z,93.02
2022-12-29T12:11:05.171Z,92.91
2022-12-29T12:12:05.121Z,93.43
2022-12-29T12:13:05.111Z,92.91
2022-12-29T12:14:05.098Z,93.22
2022-12-29T12:15:05.092Z,93.73
2022-12-29T12:16:05.154Z,93.84
2022-12-29T12:17:05.076Z,93.57
2022-12-29T12:18:05.048Z,93.67
2022-12-29T12:19:05.044Z,94.08
2022-12-29T12:20:05.033Z,93.57
2022-12-29T12:21:05.025Z,93.93
2022-12-29T12:22:04.986Z,93.57
2022-12-29T12:23:04.976Z,93.77
2022-12-29T12:24:04.965Z,93.47
2022-12-29T12:25:04.956Z,94.38
2022-12-29T12:26:04.953Z,93.98
2022-12-29T12:27:04.926Z,93.57
2022-12-29T12:28:04.913Z,93.47
2022-12-29T12:29:04.895Z,93.67
2022-12-29T12:30:04.975Z,93.77
2022-12-29T12:31:04.942Z,93.88
2022-12-29T12:32:04.896Z,93.57
2022-12-29T12:33:04.853Z,93.16
2022-12-29T12:34:04.816Z,93.06
2022-12-29T12:35:04.857Z,93.37
2022-12-29T12:36:04.836Z,93.06
2022-12-29T12:37:04.817Z,93.47
2022-12-29T12:38:04.788Z,93.16
2022-12-29T12:39:04.770Z,93.16
2022-12-29T12:40:04.757Z,93.37
2022-12-29T12:41:04.731Z,93.26
2022-12-29T12:42:04.744Z,92.86
2022-12-29T12:43:04.707Z,93.06
2022-12-29T12:44:04.699Z,93.57
2022-12-29T12:45:04.697Z,93.98
2022-12-29T12:46:04.707Z,94.18
2022-12-29T12:47:04.672Z,93.98
2022-12-29T12:48:04.659Z,93.88
2022-12-29T12:49:04.636Z,93.47
2022-12-29T12:50:04.617Z,93.47
2022-12-29T12:51:04.599Z,93.98
2022-12-29T12:52:05.603Z,93.88
2022-12-29T12:53:04.573Z,93.57